NOTIFICACIONES POR AVISO

Enero 2020

El inciso 2 ° del Artículo 69 del Código de Procedimiento Administrativo y de lo Contencioso Administrativo Establece Que «cuando se desconozca la Información Sobre el Destinatario, el aviso, con copia íntegra del acto administrativo, se publicará en la Página Electrónica y en TODO Caso en Un lugar de Acceso al Público de la respectiva Entidad por el término de cinco (5) Días, con la ADVERTENCIA de la notificación del Que se considerará surtida al Finalizar el día siguiente del retiro del aviso «.

N ° de las Resoluciones

Fecha de Resoluciones

Nombre Empresa – Vigilado – Persona Natural

Nit

N° de Infracción al Transporte

Fecha Fijación

 Fecha Desfijación

Fecha en La que se Entiende notificada la Resolución

Resolución de Apertura

11542 25/10/2019 TRANSPORTES ANDINO EXPRESS LTDA HOY EN LIQUIDACION 9003933614 N/A 16/01/2020 22/01/2020 23/01/2020 15597
12058 05/11/2019 INTERSUPPLY CORP S.A.S. 9003029361 N/A 16/01/2020 22/01/2020 23/01/2020 15249
12060 05/11/2019 TRANSPORTES ESPECIALES JMG S.A.S. 9003046135 N/A 16/01/2020 22/01/2020 23/01/2020 15401
12106 05/11/2019 CARGADORA COLOMBIA S.A.S 9001893889 N/A 16/01/2020 22/01/2020 23/01/2020 14313
13064 26/11/2019 MEGA ALFA TRANSPORTES S.A.S 9007699285 N/A 16/01/2020 22/01/2020 23/01/2020 41493
13090 26/11/2019 TRANSPORTES CAMIONES Y SERVICIOS LTDA 8190037414 NA 16/01/2020 22/01/2020 23/01/2020 75066
13357 02/12/2019 TRAVESYA SAS TRANSPORTE VEHICULAR ESPECIAL Y AEREO 8170032240 N/A 16/01/2020 22/01/2020 23/01/2020 62312
13383 03/12/2019 CASANOVA ESPINOSA KELSI TATIANA 38472619 N/A 16/01/2020 22/01/2020 23/01/2020 NA
13444 03/12/2019 EMPRESA DE TRANSPORTE BUENA VISTA S.A.S. 9004767741 15329671 16/01/2020 22/01/2020 23/01/2020 29634
13456 03/12/2019 TRANSPORTE ESPECIAL EUROTRANST S.A.S 9009369615 15337953 16/01/2020 22/01/2020 23/01/2020 28910
13460 03/12/2019 TRANSPORTES CASTILLO BARCO LTDA 8300754006 385765 16/01/2020 22/01/2020 23/01/2020 21525
13463 03/12/2019 TRANSPORTE VEHICULAR ESPECIAL Y AEREO LTDA 8170032240 15335862 16/01/2020 22/01/2020 23/01/2020 29637
13487 03/12/2019 TRANSPORTE VEHICULAR ESPECIAL Y AEREO LTDA 8170032240 15334629 16/01/2020 22/01/2020 23/01/2020 29562
13502 03/12/2019 TURIVANS S.A.S. 8300729042 15336894 16/01/2020 22/01/2020 23/01/2020 27756
13504 03/12/2019 EMPRESA DE TRANSPORTE BUENA VISTA S.A.S. 9004767741 15335867 16/01/2020 22/01/2020 23/01/2020 23261
13516 03/12/2019 EMPRESA DE TRANSPORTE BUENA VISTA S.A.S. 9004767741 13753840 16/01/2020 22/01/2020 23/01/2020 30235
13519 03/12/2019 TRANSPORTE ESPECIAL EUROTRANST S.A.S 9009369615 15335318 16/01/2020 22/01/2020 23/01/2020 30667
13575 03/12/2019 TRANSPORTES EL CAIMAN LTDA 8190051027 0040042 16/01/2020 22/01/2020 23/01/2020 21534
13606 03/12/2019 EMPRESA DE TRANSPORTE BUENA VISTA S.A.S. 9004767741 15337278 16/01/2020 22/01/2020 23/01/2020 27764
13608 03/12/2019 EMPRESA DE TRANSPORTE BUENA VISTA S.A.S. 9004767741 15335128 16/01/2020 22/01/2020 23/01/2020 28898
13639-1 03/12/2019 OPERVAL LTDA 9002291663 N/A 16/01/2020 22/01/2020 23/01/2020 NA
13639-2 03/12/2019 MARTAN RODRIGUEZ RAFAEL OSWALDO 16623980 N/A 16/01/2020 22/01/2020 23/01/2020 NA
13639-3 03/12/2019 MORENO GONGORA MARLENE 25434258 N/A 16/01/2020 22/01/2020 23/01/2020 NA
13639-4 03/12/2019 SOCIEDAD OLIMAR LTDA 8001079609 N/A 16/01/2020 22/01/2020 23/01/2020 NA
13639-5 03/12/2019 EMPRESA DE SERVICIOS TEMPORALES S.A.S. 8350007092 N/A 16/01/2020 22/01/2020 23/01/2020 NA
13639-6 03/12/2019 RIVERSIDE DE OCCIDENTE S.A. 9002543239 N/A 16/01/2020 22/01/2020 23/01/2020 NA
13639-7 03/12/2019 PRODECAR LTDA 9001059469 N/A 16/01/2020 22/01/2020 23/01/2020 NA
13639-8 03/12/2019 MUNDIAL DE SERVICIOS PORTUARIO 9001119431 N/A 16/01/2020 22/01/2020 23/01/2020 NA
13639-9 03/12/2019 TRANSPORT PACIFIC SERVICE LOGISTIC LTDA TPS LOGISTIC 9000464251 N/A 16/01/2020 22/01/2020 23/01/2020 NA
13639-10 03/12/2019 RENTERIA Y MARTINEZ OPERACIONES 9007832935 N/A 16/01/2020 22/01/2020 23/01/2020 NA
13639-11 03/12/2019 CONTRASERVIS LTDA 8350007551 N/A 16/01/2020 22/01/2020 23/01/2020 NA
13639-12 03/12/2019 RAPIDOS DEL PACIFICO S.A.S 8305115599 N/A 16/01/2020 22/01/2020 23/01/2020 NA
13639-13 03/12/2019 TECNICOS Y DESCARGUES OPERADORES E.U. 9000176451 N/A 16/01/2020 22/01/2020 23/01/2020 NA
13639-14 03/12/2019 SOCIEDAD OPERACIONES LOGISTICAS DEL PACIFICO LTDA 9004773512 N/A 16/01/2020 22/01/2020 23/01/2020 NA
13639-15 03/12/2019 SERVICARGA INTERNACIONAL Y CIA LTDA 8350012222 N/A 16/01/2020 22/01/2020 23/01/2020 NA
13639-16 03/12/2019 DESCAR O.P. S.A.S 9003678591 N/A 16/01/2020 22/01/2020 23/01/2020 NA
13639-17 03/12/2019 KELSI TATIANA CASANOVA ESPINOSA 38472619 N/A 16/01/2020 22/01/2020 23/01/2020 NA
13639-18 03/12/2019 LOGISCARGA BUENAVENTURA 38472619 N/A 16/01/2020 22/01/2020 23/01/2020 NA
13639-19 03/12/2019 LEOPOLDO CARABALI LEMOS 13104973 N/A 16/01/2020 22/01/2020 23/01/2020 NA
13639-20 03/12/2019 EMPRESA DE SERVICIOS TEMPORALES S.A.S. 8350007092 N/A 16/01/2020 22/01/2020 23/01/2020 NA
13639-21 03/12/2019 VALENTIERRA CASTRO ADY FRANCISCO 16486266 N/A 16/01/2020 22/01/2020 23/01/2020 NA
13639-22 03/12/2019 GARCES CELORIO DAGOBERTO 16485561 N/A 16/01/2020 22/01/2020 23/01/2020 NA
13639-23 03/12/2019 CAICEDO TERESA 31382172 N/A 16/01/2020 22/01/2020 23/01/2020 NA
13639-24 03/12/2019 LOGIST AND SERVICE LTDA 9000942312 N/A 16/01/2020 22/01/2020 23/01/2020 NA
13639-25 03/12/2019 OPERADORES DEL PACIFICO LTDA 8350005791 N/A 16/01/2020 22/01/2020 23/01/2020 NA
13639-26 03/12/2019 SOCIEDAD C.I. COMBUSTIBLES DEL MAR S.A.S 8000554825 N/A 16/01/2020 22/01/2020 23/01/2020 NA
13639-27 03/12/2019 X PORTUARIA O.P S.A.S 9008156270 N/A 16/01/2020 22/01/2020 23/01/2020 NA
13639-28 03/12/2019 SERPORTBUN E.U. 9002264220 N/A 16/01/2020 22/01/2020 23/01/2020 NA
13639-29 03/12/2019 GARFER LTDA «EN LIQUIDACION» 8901106096 N/A 16/01/2020 22/01/2020 23/01/2020 NA
13639-30 03/12/2019 TRANSPORTES FLUVIALES JOSE CORREA PINTO 5671270 N/A 16/01/2020 22/01/2020 23/01/2020 NA
13639-31 03/12/2019 CAPA OPERADOR PORTUARIO S.A.S 9007045441 N/A 16/01/2020 22/01/2020 23/01/2020 NA
13639-32 03/12/2019 ORGANIZACION LOGISTICA Y CIA 8350008993 N/A 16/01/2020 22/01/2020 23/01/2020 NA
13639-33 03/12/2019 CURI ROMERO CESAR AUGUSTO 9312360 N/A 16/01/2020 22/01/2020 23/01/2020 NA
13639-34 03/12/2019 LAURE DALEL CURI CURE 1128282997 N/A 16/01/2020 22/01/2020 23/01/2020 NA
13639-35 03/12/2019 DIAZ ANDRADE CARLOS ALBERTO 16186639 N/A 16/01/2020 22/01/2020 23/01/2020 NA
13639-36 03/12/2019 D Y D LTDA 9000726589 N/A 16/01/2020 22/01/2020 23/01/2020 NA
13639 03/12/2019 H Y G FUTURO CIA LTDA O.P. 9000309440 N/A 16/01/2020 22/01/2020 23/01/2020 NA
13645 03/12/2019 C.I. COMBUSTIBLES DEL MAR S.A.S. 8000554825 NA 16/01/2020 22/01/2020 23/01/2020 NA
13688 05/12/2019 OLIMAR LTDA 8001079609 NA 16/01/2020 22/01/2020 23/01/2020 NA
13705 06/12/2019 AVALAMOS LTDA 9001424189 NA 16/01/2020 22/01/2020 23/01/2020 74990
13714 06/12/2019 COMPANIA SERVI ESPECIALES LTDA 8020210436 NA 16/01/2020 22/01/2020 23/01/2020 7210
13716 06/12/2019 TRANSPORTE BOLIVARIANO LTDA 8020241739 NA 16/01/2020 22/01/2020 23/01/2020 7164
13717 06/12/2019 COMPANIA LOGISTICA DEL NORTE LTDA 8020183771 NA 16/01/2020 22/01/2020 23/01/2020 7209
13719 06/12/2019 TRANSPORTADORA DE GANADO SNATADER LIMITADA 8040134543 NA 16/01/2020 22/01/2020 23/01/2020 7446
13721 06/12/2019 COOTRAMERCOL 8020234398 NA 16/01/2020 22/01/2020 23/01/2020 7163
13724 06/12/2019 TM CARGO SA 9000172952 NA 16/01/2020 22/01/2020 23/01/2020 74998
13725 06/12/2019 COOPERATIVA DE TRANSPORTADORES DE CARGA NUEVO MILENIO LTDA 8040080232 NA 16/01/2020 22/01/2020 23/01/2020 7165
13740 06/12/2019 COOTRANSPAC 8001960479 NA 16/01/2020 22/01/2020 23/01/2020 74835
13746 06/12/2019 TRANSMINEROS DE COLOMBIA DEL PACIFICO SAS 900513541 NA 16/01/2020 22/01/2020 23/01/2020 74410
13754 06/12/2019 CRC UBATE LIMITADA 900218663 NA 16/01/2020 22/01/2020 23/01/2020 75006
13833 09/12/2019 CENTRO DE RECONOCIMIENTO DE CONDUCTORES CONDUMEDIC SAS 9007615476 N/A 16/01/2020 22/01/2020 23/01/2020 24540
13834 09/12/2019 TRANSCONTINENTAL V.I.P. S.A.S 9005103221 N/A 16/01/2020 22/01/2020 23/01/2020 62254
13837 09/12/2019 COOPERATIVA DE MOTORISTAS DEL HUILA Y CAQUETA LTDA 8911002791 N/A 16/01/2020 22/01/2020 23/01/2020 4034
13920 09/12/2019 BIP TRANSPORTES S.A.S. 8300619457 15337476 16/01/2020 22/01/2020 23/01/2020 30473
13995 09/12/2019 TURISMO Y EXPRESOS LTDA 8300800408 15337959 16/01/2020 22/01/2020 23/01/2020 28429
14018 09/12/2019 MULTINACIONAL TRANSPORTADORA SAS 8000938339 NA 16/01/2020 22/01/2020 23/01/2020 74982
14021 09/12/2019 TRANSCARGA LA SERRANIA LIMITADA 8001184669 NA 16/01/2020 22/01/2020 23/01/2020 24151
14026 09/12/2019 ASOTRANSIM 9005103221 NA 16/01/2020 22/01/2020 23/01/2020 31941
14028 09/12/2019 ASOTRANSIM 9005103221 NA 16/01/2020 22/01/2020 23/01/2020 32507
14036 09/12/2019 TRANSPORTES WHILLER SA 800157841 NA 16/01/2020 22/01/2020 23/01/2020 74744
14037 09/12/2019 LINCO EXPRESS LTDA EN LIQUIDACION 800249309 NA 16/01/2020 22/01/2020 23/01/2020 74890
14047 09/12/2019 TRANSCARGA LA SERRANIA LIMITADA 8001184669 375603 16/01/2020 22/01/2020 23/01/2020 27400
14062 09/12/2019 TRANSCARGA LA SERRANIA LIMITADA 8001184869 380169 16/01/2020 22/01/2020 23/01/2020 21565
14095 09/12/2019 TRANSPORTES ESPECIALIZADOS JR S.A.S. 8300335810 122032 16/01/2020 22/01/2020 23/01/2020 23706
14098 10/12/2019 ACADEMIA AUTOMOVILISTICA AUTOGIRAR – EN COPROPIEDAD 26531 NA 16/01/2020 22/01/2020 23/01/2020 NA
14098-1 10/12/2019 ALFREDO HUEPA MOSQUERA 14229780 NA 16/01/2020 22/01/2020 23/01/2020 NA
14098-2 10/12/2019 VICTOR HUGO MEDINA ACEVEDO 17321925 NA 16/01/2020 22/01/2020 23/01/2020 NA
14098-3 10/12/2019 ADRIANA PATRICIA FORERO MAJBUB 39566787 NA 16/01/2020 22/01/2020 23/01/2020 NA
14098-4 10/12/2019 MANUEL ANTONIO MUNOZ GODOY 11299338 NA 16/01/2020 22/01/2020 23/01/2020 NA
14098-5 10/12/2019 FELIX ANTONIO GALINDO FORIGUA 19259462 NA 16/01/2020 22/01/2020 23/01/2020 NA
14098-6 10/12/2019 JUAN CARLOS CORREA VESGA 11314505 NA 16/01/2020 22/01/2020 23/01/2020 NA
14098-7 10/12/2019 JERSON ENRIQUE RODRIGUEZ LOAIZA 11318271 NA 16/01/2020 22/01/2020 23/01/2020 NA
14132 11/12/2019 AHT ALL HEAVY TRANSPORT COLOMBIA SOCIEDAD POR ACCIONES SIMPLIFICADA 9001472709 372375 16/01/2020 22/01/2020 23/01/2020 25108
14318 11/12/2019 MULTITRANSPORTE Y LOGISTICA DE COLOMBIA S.A.S. 9004246487 15337912 16/01/2020 22/01/2020 23/01/2020 27770
14341 11/12/2019 DOLPHIN EXPRESS S.A. 8300982166 405097 16/01/2020 22/01/2020 23/01/2020 33893
14355 11/12/2019 TRANSPORTES CARALBE LTDA 8901159101 237471 16/01/2020 22/01/2020 23/01/2020 21503
14411 12/12/2019 LITRACOL 800114816 NA 16/01/2020 22/01/2020 23/01/2020 NA
14451 12/12/2019 TRANSPORTES COURRIER SA 8604514015 NA 16/01/2020 22/01/2020 23/01/2020 74941
14452 12/12/2019 NIETO DE VELASCO ELSA MARIA 417711352 NA 16/01/2020 22/01/2020 23/01/2020 73357
14453 12/12/2019 TRANSPORTES DE CARGA LASER LTDA 8604008761 NA 16/01/2020 22/01/2020 23/01/2020 74861
14462 12/12/2019 ITCSE LTDA 8300471120 NA 16/01/2020 22/01/2020 23/01/2020 39592
14556 16/12/2019 FEDECARGA LIMITADDA 8301046387 NA 16/01/2020 22/01/2020 23/01/2020 74953
14558 16/12/2019 COOPERATIVA DE VIAJES Y TURISMO ALASKA TOUR 8001832581 NA 16/01/2020 22/01/2020 23/01/2020 74753
14560 16/12/2019 METRO CUBICO COLOMBIA SAS 9006473798 NA 16/01/2020 22/01/2020 23/01/2020 69586
14575 16/12/2019 TURISMO Y ESPRESOS SAS 8300800408 NA 16/01/2020 22/01/2020 23/01/2020 53697
14576 16/12/2019 TURISMO Y ESPRESOS SAS 8300800408 NA 16/01/2020 22/01/2020 23/01/2020 51017
14577 16/12/2019 TURISMO Y ESPRESOS SAS 8300800408 NA 16/01/2020 22/01/2020 23/01/2020 50415
14578 16/12/2019 JYS TRANSPORTES Y TURISMO SAS 8301228713 NA 16/01/2020 22/01/2020 23/01/2020 33395
14581 16/12/2019 LOGISTIX SAS 8305001811 NA 16/01/2020 22/01/2020 23/01/2020 74947
14588 16/12/2019 COLOMBIAN CHARGER TRANSPORTE DE CARGA Y SERVICIOS ESPECIALES SAS 8301352941 NA 16/01/2020 22/01/2020 23/01/2020 74945
14589 16/12/2019 KAREN TOURS SA 8002146967 NA 16/01/2020 22/01/2020 23/01/2020 47648
14590 16/12/2019 COMPANIA DE TRANSPORTES ESPECIALES FENIX EXPREX 8301198325 NA 16/01/2020 22/01/2020 23/01/2020 51323
14603 16/12/2019 COOPERATIVA INTEGRAL DE SERVICIOS Y TRANSPORTE LTDA – CISTRA LTDA 8600762304 13760199 16/01/2020 22/01/2020 23/01/2020 16685
14604 16/12/2019 COOPERATIVA INTEGRAL DE SERVICIOS Y TRANSPORTE LTDA – CISTRA LTDA 8600762304 227157 16/01/2020 22/01/2020 23/01/2020 16098
14605 16/12/2019 COOPERATIVA INTEGRAN DE SERVICIOS Y TRANSPORTE LTDA – CISTRA LTDA 8600762304 254682 16/01/2020 22/01/2020 23/01/2020 13834
12007 01/11/2019 JOSE BELENO LOBO 578353 44049 16/01/2020 22/01/2020 23/01/2020 43384
14536 16/12/2019 TRANSPORTES ESPECIALIZADOS JR SAS 8300335810 N/A 16/01/2020 22/01/2020 23/01/2020 37115
20195605779212 05/09/2019 JORGE HERNAN SANCHEZ BARRAGAN NA NA 16/01/2020 22/01/2020 23/01/2020 NA
20195605986652 13/11/2019 JORGE GREGORIO RAMIREZ PULIDO NA NA 16/01/2020 22/01/2020 23/01/2020 NA
20195605990102 13/11/2019 MAURICIO HERNANDEZ DOMINGUEZ NA NA 16/01/2020 22/01/2020 23/01/2020 NA
12829 18/11/2009 ASOCIACION DE TRANSPORTADORES EXPRESOS ALIANZA 9002818037 290466 24/01/1900 30/01/2020 31/01/2020 13036
12932 22/11/2019 TRANSPORTE VEHICULAR ESPECIAL Y AEREO LTDA 8170032240 15335861 24/01/1900 30/01/2020 31/01/2020 30447
13077 26/11/2019 EMPRESA DE TRANSPORTE BUENA VISTA S.A.S. 9004767741 13759903 24/01/1900 30/01/2020 31/01/2020 371
13140 27/11/2019 UNIDAD DE TRANSPORTE S.A. 8360005043 201447 24/01/1900 30/01/2020 31/01/2020 4366
13176 27/11/2019 EMPRESA DE TRANSPORTE BUENA VISTA S.A.S. 9004767741 15329443 24/01/1900 30/01/2020 31/01/2020 28486
13179 27/11/2019 EMPRESA DE TRANSPORTE BUENA VISTA S.A.S. 9004767741 15330442 24/01/1900 30/01/2020 31/01/2020 27747
13209 27/11/2019 UNIDAD DE TRANSPORTE S.A. 8360005043 195199 24/01/1900 30/01/2020 31/01/2020 27636
13231 27/11/2019 ARDILA GOMEZ TRANSPORTES Y REPRESENTACIONES LTDA. ARGO TRANS LTDA. 8001679581 399025 24/01/1900 30/01/2020 31/01/2020 31562
13235 27/11/2019 EMPRESA DE TRANSPORTE BUENA VISTA S.A.S. 9004767741 15336200 24/01/1900 30/01/2020 31/01/2020 28922
13238 27/11/2019 EMPRESA DE TRANSPORTE BUENA VISTA S.A.S. 9004767741 13753072 24/01/1900 30/01/2020 31/01/2020 31407
13267 27/11/2019 TRANSPORTE ESPECIAL EUROTRANST S.A.S 9009369615 15327196 24/01/1900 30/01/2020 31/01/2020 26905
13271 27/11/2019 COOPERATIVA DE TRANSPORTADORES DE RISARALDA LTDA 8914005928 187334 24/01/1900 30/01/2020 31/01/2020 4343
13312 28/11/2019 SOCIEDAD INDUSTRIAL Y DE TRANSPORTE HLG LTDA EN LIQUIDACION 8050119380 N/A 24/01/1900 30/01/2020 31/01/2020 25771
13322 28/11/2019 AEROLINEAS ALAS DE COLOMBIA LTDA 8040066873 NA 24/01/1900 30/01/2020 31/01/2020 60860
13402 03/12/2019 TRANSPORTES Y DESTINOS TURISTICOS VIATURCOL S.A.S. 8001171462 13753071 24/01/1900 30/01/2020 31/01/2020 26934
13479 03/12/2019 TRANSCARGA LA SERRANIA LTDA 8001184669 405955 24/01/1900 30/01/2020 31/01/2020 24612
13503 03/12/2019 TRANSPORTES ESPECIALES LOGISTRAVEL S.A.S. 9005507420 15336645 24/01/1900 30/01/2020 31/01/2020 27757
13509 03/12/2019 SATI S.A.S. 8002106826 000152 24/01/1900 30/01/2020 31/01/2020 25121
13595 03/12/2019 BIP TRANSPORTES S.A.S. 8300619457 0041248 24/01/1900 30/01/2020 31/01/2020 16938
13600 03/12/2019 SERVICIOS DE ALQUILER Y TRANSPORTE ALVARADO Y CIA 8300900378 15336371 24/01/1900 30/01/2020 31/01/2020 30466
13611 03/12/2019 ESTURIVANS S.A.S. 8300389966 13752440 24/01/1900 30/01/2020 31/01/2020 23247
13722 06/12/2019 COMPANIA DE TRANSPORTES INTEGRADOS LTDA 8001179318 NA 24/01/1900 30/01/2020 31/01/2020 74810
13726 06/12/2019 TRANSNACIONALES SA 8080023076 NA 24/01/1900 30/01/2020 31/01/2020 6852
13758 06/12/2019 SASO S.A. 8605151151 110378 24/01/1900 30/01/2020 31/01/2020 27295
13657 05/12/2019 TRENES DEL CARIBE 9005370863 NA 24/01/2020 30/01/2020 31/01/2020 1986
13678 05/12/2019 TRANSPACIFICO Y CIA S.A.S 9005997827 NA 24/01/2020 30/01/2020 31/01/2020 1988
13824 06/12/2019 TRANSPACIFICO Y CIA SAS 9005997827 NA 24/01/2020 30/01/2020 31/01/2020 5850
20195605922962 22/10/2019 JUAN CARLOS DOMINGUEZ N/A N/A 24/01/2020 30/01/2020 31/01/2020 N/A
20185604200892 23/10/2018 TNC TERRITORIOS NACIONALES COURRIER LTDA 9002535707 N/A 24/01/2020 30/01/2020 31/01/2020 N/A
20195605945742 30/10/2019 NESTOR ARMANDO RIVEROS RIVEROS N/A N/A 24/01/2020 30/01/2020 31/01/2020 N/A
20195605966082 06/11/2019 ELENDY RUIZ CRIOLLO N/A N/A 24/01/2020 30/01/2020 31/01/2020 N/A
20195605975042 07/11/2019 MARTHA ADRIANA ROJAS SINISTERRA 52220801 N/A 24/01/2020 30/01/2020 31/01/2020 N/A
20185604293612 20/11/2018 ANGELA CALDERON N/A N/A 27/01/2020 31/01/2020 03/02/2020 N/A
20195605539622 18/06/2019 ERIKA LISETH VARGAS GOMEZ N/A N/A 27/01/2020 31/01/2020 03/02/2020 N/A
20195605975052 07/11/2019 JOSE EDUARDO FERRER N/A N/A 27/01/2020 31/01/2020 03/02/2020 N/A
20195606088822 11/12/2019 WILLIAM GIOVANNI BAQUERO GONZALEZ N/A N/A 27/01/2020 31/01/2020 03/02/2020 N/A
20195606109032 17/12/2019 JOSE EDUARDO FERRER N/A N/A 27/01/2020 31/01/2020 03/02/2020 N/A
20195606109962 17/12/2019 BLANCA STELLA SUAREZ CUBIDES 52452361 N/A 27/01/2020 31/01/2020 03/02/2020 N/A
13639-1 03/12/2019 GIL GRAJALES HERNANDO 10063515 N/A 27/01/2020 31/01/2020 03/02/2020 NA
13639 03/12/2019 TRANSPORTADORA COMERCIAL LTDA TRACO 8904039866 N/A 27/01/2020 31/01/2020 03/02/2020 NA
13794 06/12/2019 TRANSPORTES MARAGON LTDA 8913003771 NA 27/01/2020 31/01/2020 03/02/2020 73811
13797 06/12/2019 DISTRIBUCIONESLA PERLA LTDA 8190005002 NA 27/01/2020 31/01/2020 03/02/2020 75063
13860 09/12/2019 EMPRESA DE TRANSPORTE BUENA VISTA S.A.S. 9004767741 15336879 27/01/2020 31/01/2020 03/02/2020 30467
13873 09/12/2019 EMPRESA DE TRANSPORTE BUENA VISTA S.A.S. 9004767741 15336684 27/01/2020 31/01/2020 03/02/2020 25283
13880 09/12/2019 COOPERATIVA ESPECIALIZADA DE TRANSPORTADORES DE SUCRE LIMITADA 8922012353 398858 27/01/2020 31/01/2020 03/02/2020 13603
13885 09/12/2019 EMPRESA DE TRANSPORTE BUENA VISTA S.A.S. 9004767741 0041379 27/01/2020 31/01/2020 03/02/2020 21948
13911 09/12/2019 COOPERATIVA ESPECIALIZADA DE TRANSPORTADORES DE SUCRE LIMITADA 8922012353 402250 27/01/2020 31/01/2020 03/02/2020 13587
14002 09/12/2019 TRANSPORTES CASTILLO BARCO LTDA 8300754006 404862 27/01/2020 31/01/2020 03/02/2020 21890
14030 09/12/2019 EMPRESA DE TRANSPORTE BUENA VISTA SAS 9004767741 NA 27/01/2020 31/01/2020 03/02/2020 34034
14041 09/12/2019 EMPRESA DE TRANSPORTE BUENA VISTA S.A.S. 9004767741 13754995 27/01/2020 31/01/2020 03/02/2020 19794
14053 09/12/2019 EMPRESA DE TRANSPORTE BUENA VISTA S.A.S. 9004767741 13759279 27/01/2020 31/01/2020 03/02/2020 24444
14054 09/12/2019 EMPRESA DE TRANSPORTE BUENA VISTA S.A.S. 9004767741 13759328 27/01/2020 31/01/2020 03/02/2020 21925
14057 09/12/2019 EMPRESA DE TRANSPORTE BUENA VISTA S.A.S. 9004767741 282474 27/01/2020 31/01/2020 03/02/2020 37654
14063 09/12/2019 EMPRESA DE TRANSPORTE BUENA VISTA S.A.S. 9004767741 13759280 27/01/2020 31/01/2020 03/02/2020 25051
14066 09/12/2019 EMPRESA DE TRANSPORTE BUENA VISTA S.A.S. 9004767741 395954 27/01/2020 31/01/2020 03/02/2020 25274
14142 11/12/2019 LOGICARGO COOPERATIVA 9000744607 0117263 27/01/2020 31/01/2020 03/02/2020 4346
14206 11/12/2019 UNIDAD DE TRANSPORTE S.A. 8360005043 228179 27/01/2020 31/01/2020 03/02/2020 13698
14241 11/12/2019 SATI S.A.S. 8002106826 15337851 27/01/2020 31/01/2020 03/02/2020 29651
14276 11/12/2019 TRANSPORTE VEHICULAR ESPECIAL Y AEREO LTDA 8170032240 8381 27/01/2020 31/01/2020 03/02/2020 21884
14291 11/12/2019 UNIDAD DE TRANSPORTE S.A. 8360005043 204629 27/01/2020 31/01/2020 03/02/2020 4353
14299 11/12/2019 COSMOTRANS S.A.S 8110367449 0022454 27/01/2020 31/01/2020 03/02/2020 22247
14348 11/12/2019 TRANSPORTE DE CARGA INMEDIATA Y EFICAZ S.A.S. 9002801984 405963 27/01/2020 31/01/2020 03/02/2020 33410
14367 11/12/2019 SATI S.A.S. 8002106826 15337473 27/01/2020 31/01/2020 03/02/2020 29587
14437 12/12/2019 SERVICIOS CRC CAUCA APRUEBA SA 9001341111 NA 27/01/2020 31/01/2020 03/02/2020 74713
14438 12/12/2019 CENTRO INTEGRAL DE ATENCION AVANZAR SAS 900583418 NA 27/01/2020 31/01/2020 03/02/2020 69644
14475 12/12/2019 RIVERSIDE DE OCCIDENTE S.A. EN LIQUIDACION 9002543239 NA 27/01/2020 31/01/2020 03/02/2020 NA
14479 12/12/2019 EMPRESA DE SERVICIOS TEMPORALES CORAL S.A.S. 8350007092 NA 27/01/2020 31/01/2020 03/02/2020 NA
14485 12/12/2019 OPERVAL LTDA EN LIQUIDACION 9002291663 NA 27/01/2020 31/01/2020 03/02/2020 NA
14486 12/12/2019 DESCAR O.P. S.A.S. 9003678591 NA 27/01/2020 31/01/2020 03/02/2020 NA
14487 12/12/2019 EMPRESA DE SERVICIOS TEMPORALES DEL PACIFICO LTDA 8350005437 NA 27/01/2020 31/01/2020 03/02/2020 NA
14488 12/12/2019 SERVICARGA INTERNACIONAL Y CIA LTDA EN LIQUIDACION 8350012222 NA 27/01/2020 31/01/2020 03/02/2020 NA
14515 13/12/2019 CENTRO DE ENSENANZA AUTOMOLISTICA AUTOCONDUCIR DE PROPIEDAD DE AVENDANO BENAVIDES MARTHA PATRICIA 632886424 N/A 27/01/2020 31/01/2020 03/02/2020 27194
14522 13/12/2019 COORDINALCAR LTDA 8000275720 N/A 27/01/2020 31/01/2020 03/02/2020 25749
14551 16/12/2019 TRANSPROTE DE CARGA EL PORVENIR LIMITADA 8001774401 NA 27/01/2020 31/01/2020 03/02/2020 74751
14554 16/12/2019 AUTOMOVILISMO TECNICO Y CIA LIMITADA 8001620956 NA 27/01/2020 31/01/2020 03/02/2020 74813
14561 16/12/2019 MULTILOGISTIK CARGO LTDA 900028795 NA 27/01/2020 31/01/2020 03/02/2020 74918
14563 16/12/2019 ENCARGO LOGISTICA INTEGRAL SAS 9000138662 NA 27/01/2020 31/01/2020 03/02/2020 74680
14568 16/12/2019 CRC LA SABANA 9005356951 NA 27/01/2020 31/01/2020 03/02/2020 74412
14572 16/12/2019 TURYEXPRESOS LTDA 8300800408 NA 27/01/2020 31/01/2020 03/02/2020 1122
14591 16/12/2019 ESP ENERGY GROUP SAS 9003967491 NA 27/01/2020 31/01/2020 03/02/2020 74741
14662 17/12/2019 TRANSPORTES MISION 1 A NIMAIMA S.A.S 9003300745 15337480 27/01/2020 31/01/2020 03/02/2020 30652
14676 17/12/2019 TURISMO Y EXPRESOS LTDA 8300800408 15338029 27/01/2020 31/01/2020 03/02/2020 29499
14745 17/12/2019 TOUR COLOMBIA S.A.S 8300833714 15337588 27/01/2020 31/01/2020 03/02/2020 24481
14754 17/12/2019 TRANSPORTES DON QUIJOTE S.A.S 8301385575 402639 27/01/2020 31/01/2020 03/02/2020 35101
15318 19/12/2019 TRANSPORTADORA COORDINADORA DEL PAIS LIMITADA 8000176706 NA 27/01/2020 31/01/2020 03/02/2020 74750
15326 19/12/2019 TRANPORTES ASTER LTDA 8000238630 NA 27/01/2020 31/01/2020 03/02/2020 74974
15327 19/12/2019 COOPERATIVA DE TRANSPORTES DE FONTIBON 900051563 NA 27/01/2020 31/01/2020 03/02/2020 73894
15328 19/12/2019 UNIVERSAL EXPRESS DE CARGA Y CIA 8301293366 NA 27/01/2020 31/01/2020 03/02/2020 74828
15346 19/12/2019 TRANSPORTES WILMARCAL SAS 9005223672 NA 27/01/2020 31/01/2020 03/02/2020 74411
15355 19/12/2019 AVANZAMOS LOGISTICA WEDO LOGISTICS SAS 9004364586 NA 27/01/2020 31/01/2020 03/02/2020 75044
15362 19/12/2019 COOSURAMERICANA TRANS LTDA 8605301414 NA 27/01/2020 31/01/2020 03/02/2020 74944
15363 19/12/2019 FORTALEZA DE TRANSPORTES LTDA 8605069282 NA 27/01/2020 31/01/2020 03/02/2020 74943
7950 02/09/2019 CENTRO INTEGRAL DE ATENCION CONCIENTIZAR SAS 9005858791 NA 28/01/2020 03/02/2020 04/02/2020 16704
12028 05/11/2019 GLOBAL DE LOGISTICA Y SERVICIOS INTEGRALES MONTOYA BAEZ S.A.S. EN REORGANIZACION 9002640821 N/A 28/01/2020 03/02/2020 04/02/2020 15212
12121 05/11/2019 TRANSCARGA ISLAS LIMITADA HOY TRANSCARGA ISLAS SAS 9002119448 N/A 28/01/2020 03/02/2020 04/02/2020 14327
13050 25/11/2019 TRANSPORTES MASA LTDA 9001634648 N/A 28/01/2020 03/02/2020 04/02/2020 N/A
13599 03/12/2019 TRANSPORTES ESPECIALES 1CAR S.A.S. 9008877815 13752574 28/01/2020 03/02/2020 04/02/2020 29647
13639 03/12/2019 SUPERINTENDENCIA DE PUERTOS N/A 0 28/01/2020 03/02/2020 04/02/2020 0
13720 06/12/2019 SERVICIOS JR SAS 800139060 NA 28/01/2020 03/02/2020 04/02/2020 73393
13727 06/12/2019 KILOMETRO 2 VIA GUACHETA 9001731171 NA 28/01/2020 03/02/2020 04/02/2020 74663
13729 06/12/2019 COOTRANSAR LTDA 8906803018 NA 28/01/2020 03/02/2020 04/02/2020 74792
13736 06/12/2019 SERMILENIO SA 8320074160 NA 28/01/2020 03/02/2020 04/02/2020 46594
13992 09/12/2019 LINEAS TECNICAS DE CARGAMENTO S.A. 8000818337 387828 28/01/2020 03/02/2020 04/02/2020 4388
14033 09/12/2019 TRANSPORTES DUARTE SA 8600247452 NA 28/01/2020 03/02/2020 04/02/2020 32018
14067 09/12/2019 TRANSPORTE DE CARGA HB LTDA 8301317136 230766 28/01/2020 03/02/2020 04/02/2020 24143
14072 09/12/2019 LA GRAN ANDINA TRANSPORTES LTDA 8350044229 230883 28/01/2020 03/02/2020 04/02/2020 3917
14118 11/12/2019 COOPERATIVA ESTELAR DE TRANSPORTE ESPECIAL 8300888338 15337161 28/01/2020 03/02/2020 04/02/2020 27769
14120 11/12/2019 EMPRESA DE TRANSPORTE BUENA VISTA S.A.S. 9004767741 13752150 28/01/2020 03/02/2020 04/02/2020 29592
14149 11/12/2019 COOPERATIVA ESPECIALIZADA DE TRANSPORTADORES DE SUCRE LTDA 8922012353 402153 28/01/2020 03/02/2020 04/02/2020 13585
14171 11/12/2019 COOPERATIVA ESPECIALIZADA DE TRANSPORTADORES DE SUCRE LIMITADA COOTRASUCRE 8922012353 402062 28/01/2020 03/02/2020 04/02/2020 13591
14199 11/12/2019 EMPRESA DE TRANSPORTE BUENA VISTA S.A.S. 9004767741 15337205 28/01/2020 03/02/2020 04/02/2020 29583
14211 11/12/2019 COOPERATIVA ESPECIALIZADA DE TRANSPORTADORES DE SUCRE LIMITADA 8922012353 405352 28/01/2020 03/02/2020 04/02/2020 23035
14227 11/12/2019 EMPRESA DE TRANSPORTE BUENA VISTA S.A.S. 9004767741 15337659 28/01/2020 03/02/2020 04/02/2020 25278
14265 11/12/2019 MIL SERVICIOS S.A.S 8080026221 15330424 28/01/2020 03/02/2020 04/02/2020 30243
14268 11/12/2019 EMPRESA DE TRANSPORTE BUENA VISTA S.A.S. 9004767741 15337854 28/01/2020 03/02/2020 04/02/2020 30690
14313 11/12/2019 EMPRESA DE TRANSPORTE BUENA VISTA S.A.S. 9004767741 15339164 28/01/2020 03/02/2020 04/02/2020 35212
14390 11/12/2019 EMPRESA DE TRANSPORTE BUENA VISTA S.A.S. 9004767741 15335689 28/01/2020 03/02/2020 04/02/2020 24355
14424 12/12/2019 LINEAS TECNICAS DE CARGAMENTOS S.A.S. 8000818337 230923 28/01/2020 03/02/2020 04/02/2020 NA
14449 12/12/2019 LIQIDOS Y CARGA LIMITADA 8000363138 NA 28/01/2020 03/02/2020 04/02/2020 73377
14478 12/12/2019 D Y D LTDA EN LIQUIDACION 9000726589 NA 28/01/2020 03/02/2020 04/02/2020 NA
14483 12/12/2019 TECNICOS Y DESCARGUES OPERADORES E.U. EN LIQUIDACION 9000176451 NA 28/01/2020 03/02/2020 04/02/2020 NA
14557 16/12/2019 COOPERATIVA DE TRANSPORTADORES UNIDOS DE PALMIRA 8913037936 NA 28/01/2020 03/02/2020 04/02/2020 74930
14559 16/12/2019 CRS QUALITY 9000113171 NA 28/01/2020 03/02/2020 04/02/2020 74678
14573 16/12/2019 CIIOERATIVA INTEGRAL DE SERVICIOS Y TRANSPORTE LTDA 8600762304 NA 28/01/2020 03/02/2020 04/02/2020 51248
14579 16/12/2019 TRANSPORTES UNO A DEL LLANO SA 8160085362 NA 28/01/2020 03/02/2020 04/02/2020 7485
14580 16/12/2019 COOPERATIVA DE TRANSPORTES ASOCIADOS 8020239446 NA 28/01/2020 03/02/2020 04/02/2020 7192
14592 16/12/2019 SOCIEDAD ANDINO LTDA 8001478547 NA 28/01/2020 03/02/2020 04/02/2020 74879
14617 16/12/2019 COOPERATIVA MULTIACTIVA DE TRANSPORTADORES EL DORADO COOTRANSDORADO LTDA 8600775161 13754278 28/01/2020 03/02/2020 04/02/2020 29225
14647 17/12/2019 TAXSUR S.A 8902117682 004713 28/01/2020 03/02/2020 04/02/2020 54370
14674 17/12/2019 EMPRESA DE TRANSPORTE BUENA VISTA S.A.S. 9004767741 15336566 28/01/2020 03/02/2020 04/02/2020 35069
14675 17/12/2019 TRANSPORTE LOGISTICO SERVIMOS S.A.S 9008584738 15334527 28/01/2020 03/02/2020 04/02/2020 35070
14706 17/12/2019 TRANSPORTES TURINO S.A.S 8300776209 15334844 28/01/2020 03/02/2020 04/02/2020 31474
14784 17/12/2019 EMPRESA DE TRANSPORTE BUENA VISTA S.A.S. 9004767741 15336134 28/01/2020 03/02/2020 04/02/2020 24207
14790 17/12/2019 SERVICIOS DE ALQUILER Y TRANSPORTE ALVARADO Y CUESTA 8300900378 402790 28/01/2020 03/02/2020 04/02/2020 35099
14975 19/12/2019 EXXE LOGISTICA S.A.S. 8300514407 399937 28/01/2020 03/02/2020 04/02/2020 13702
15032 19/12/2019 TRANSPORTE VEHICULAR ESPECIAL Y AEREO LTDA 8170032240 15335082 28/01/2020 03/02/2020 04/02/2020 23309
15051 19/12/2019 TURISTAN S.A.S 8001120241 15337728 28/01/2020 03/02/2020 04/02/2020 24393
15098 19/12/2019 TRANSPORTES MISION 1 A NIMAIMA S.AS. 90033000745 15336887 28/01/2020 03/02/2020 04/02/2020 25270
15224 19/12/2019 TRANSPORTES FATACAR S.A.S 8300558493 404864 28/01/2020 03/02/2020 04/02/2020 13753
15264 19/12/2019 PLATINO VIP S.A.S. 8001053711 356479 28/01/2020 03/02/2020 04/02/2020 34469
15281 19/12/2019 TRANSPORTES AVANCE S.A.S 9003054932 0040285 28/01/2020 03/02/2020 04/02/2020 6912
15306 19/12/2019 SERVI TRASTEOS LTDA 8000814800 NA 28/01/2020 03/02/2020 04/02/2020 73380
15308 19/12/2019 TRANSCALERO LTDA 8000879214 NA 28/01/2020 03/02/2020 04/02/2020 14527
15309 19/12/2019 TRANSCALERO LTDA 8000879214 NA 28/01/2020 03/02/2020 04/02/2020 26119
15317 19/12/2019 CRC INVICTA SAS 9005986659 NA 28/01/2020 03/02/2020 04/02/2020 69424
15320 19/12/2019 PROMOTORA DE SEGURIDAD VIAL SA 9001091811 NA 28/01/2020 03/02/2020 04/02/2020 74666
15321 19/12/2019 IPS A PRUEBA ANTIOQUIA SAS 9004290742 NA 28/01/2020 03/02/2020 04/02/2020 73943
15329 19/12/2019 TRANSPORTE DE TURISMO ESPECIAL Y ESCOLAR LA ROCA LTDA 8301086195 NA 28/01/2020 03/02/2020 04/02/2020 74955
15331 19/12/2019 TRANSPORTES CEGAR SAS 8305044283 NA 28/01/2020 03/02/2020 04/02/2020 73883
15342 19/12/2019 NUTIBARA CARGA SAS 9003976728 NA 28/01/2020 03/02/2020 04/02/2020 73929
15352 19/12/2019 COMPANIA DE TRANSPORTES REFRIGERADOS LTDA 8605028555 NA 28/01/2020 03/02/2020 04/02/2020 74942
15354 19/12/2019 COOTRAMERCOL 8020234398 NA 28/01/2020 03/02/2020 04/02/2020 73423
15357 19/12/2019 EMPRESA DE TRANSPORTE DE SERVICIOS ESPECIALES LOS ANDES SA 8605363163 NA 28/01/2020 03/02/2020 04/02/2020 73796
15369 19/12/2019 TRIANA ZUA ALLENDE 8001469382 NA 28/01/2020 03/02/2020 04/02/2020 73403
15370 19/12/2019 COOPERATIVA DE TRANSPORTADORES LAS PALMAS LTDA 8001074441 NA 28/01/2020 03/02/2020 04/02/2020 74731
15377 19/12/2019 TRANSCALERO LTDA 8000879214 NA 28/01/2020 03/02/2020 04/02/2020 27531
15380 19/12/2019 TRANSPORTES ZULUAGA E HIJOS Y CIA. LTDA 8001882195 364968 28/01/2020 03/02/2020 04/02/2020 25957
15393 19/12/2019 TURIVANS SAS 8300729042 348824 28/01/2020 03/02/2020 04/02/2020 25377
15399 19/12/2019 TURIVANS SAS 8300729042 13753007 28/01/2020 03/02/2020 04/02/2020 12621
15400 19/12/2019 TURISVANS SAS 8300729042 13758960 28/01/2020 03/02/2020 04/02/2020 16376
15408 19/12/2019 COMPANIA DE TRANSPORTES ESPECIALES FORTATRANS S.A.S. BUS PLUS S.A.S. 8320068746 15333028 28/01/2020 03/02/2020 04/02/2020 15133
15425 19/12/2019 KLM CIA REAL HOLANDESADE AVIACION 8600098766 NA 28/01/2020 03/02/2020 04/02/2020 25/11/2015
15429 19/12/2019 CONTRASERVIS LTDA EN LIQUIDACION 8350007551 NA 28/01/2020 03/02/2020 04/02/2020 NA
15430 19/12/2019 HYG FUTURO CIA LTDA O.P. EN LIQUIDACION 9000309440 NA 28/01/2020 03/02/2020 04/02/2020 NA
15431 19/12/2019 RENTERIA Y MARTINEZ OPERACIONES PORTUARIAS S.A.S. 9007832935 NA 28/01/2020 03/02/2020 04/02/2020 NA
15433 19/12/2019 OPERADORES DEL PACIFICO LTDA EN LIQUIDACION 8350005791 NA 28/01/2020 03/02/2020 04/02/2020 NA
15434 19/12/2019 MUNDIAL DE SERVICIOS PORTUARIOS LTDA EN LIQUIDACION 9001119431 NA 28/01/2020 03/02/2020 04/02/2020 NA
15435 19/12/2019 TRANSPORT PACIFIC SERVICE LOGISTIC LTDA EN LIQUIDACION 9000464251 NA 28/01/2020 03/02/2020 04/02/2020 NA
15436 19/12/2019 ORGANIZACION LOGISTICA Y CIA LTDA EN LIQUIDACION 8350008993 NA 28/01/2020 03/02/2020 04/02/2020 NA
15439 19/12/2019 LOGIST AND SERVICE LTDA EN LIQUIDACION 9000942312 NA 28/01/2020 03/02/2020 04/02/2020 NA
15441 19/12/2019 GARFER LTDA EN LIQUIDACION 8901106096 NA 28/01/2020 03/02/2020 04/02/2020 NA
15446 19/12/2019 SERPORTBUN E.U. EN LIQUIDACION 9002264220 NA 28/01/2020 03/02/2020 04/02/2020 NA
15479 24/12/2019 COMPANIA COLOMBIANA DE TRANSPORTE Y CARGA SAS 900429561 NA 28/01/2020 03/02/2020 04/02/2020 75021
15531 24/12/2019 TRANSPORTES RAPIDO NIETOS LTDA 8002392203 NA 28/01/2020 03/02/2020 04/02/2020 73416
15557 24/12/2019 TRANSPORTES ESPECIALES COLOMBIANOS Y VIAJES EXPRESOS S.A.S. VIACOLTEX 8300795027 16304 28/01/2020 03/02/2020 04/02/2020 16304
15558 24/12/2019 TRANSPORTES ESPECIALES COLOMBIANOS Y VIAJES EXPRESOS S.A.S. VIACOLTEX 8300795027 14110 28/01/2020 03/02/2020 04/02/2020 14110
15562 24/12/2019 TRANSCALERO LTDA 8000879214 25030 28/01/2020 03/02/2020 04/02/2020 25030
13651 05/12/2019 AEROLINEAS ALAS DE COLOMBIA LTDA 8040066873 NA 28/01/2020 03/02/2020 04/02/2020 1989
20195606005042 18/11/2019 HECTOR MARIO CASTAÑEDA GONZALEZ NA NA 28/01/2020 03/02/2020 04/02/2020 NA
20195606058072 03/12/2019 JOSE IGNACIO RODRIGUEZ NA NA 28/01/2020 03/02/2020 04/02/2020 NA
20195606096292 12/12/2019 MARISELA BOBADILLA POVEDA NA NA 28/01/2020 03/02/2020 04/02/2020 NA
570 03/01/2020 CARGOMAX TRANSPORTES SAS 9000487332 NA 29/01/2020 04/02/2020 05/02/2020 69562
575 03/01/2020 INNOVADORA DE SERVICIO DE CARGA 9000981652 NA 29/01/2020 04/02/2020 05/02/2020 74926
13683 05/12/2019 JOSE CORREA PINTO 5671270 NA 29/01/2020 04/02/2020 05/02/2020 NA
14264 11/12/2019 GAMA COLOMBIANA DE SERVICIOS EN TRANSPORTES AS GACOTRANS S.A.S. 9005149646 15337263 29/01/2020 04/02/2020 05/02/2020 30241
14477 12/12/2019 LAURE DALEL CURI CURE 1128282997 NA 29/01/2020 04/02/2020 05/02/2020 NA
15057 19/12/2019 COOPERATIVA ESPECIALIZADA DE TRASNPORTADORES DE SUCRE LIMITADA 8922012353 405353 29/01/2020 04/02/2020 05/02/2020 23036
15061 19/12/2019 UNIDAD DE TRANSPORTE S.A. 8360005043 405951 29/01/2020 04/02/2020 05/02/2020 24604
15102 19/12/2019 COOPERATIVA ESPECIALIZADA DE TRANSPORTADORES DE SUCRE LIMITADA 8922012353 405354 29/01/2020 04/02/2020 05/02/2020 23037
15106 19/12/2019 COOPERATIVA ESPECIALIZADA DE TRANSPORTADORES DE SUCRE LIMITADA 8922012353 0007805 29/01/2020 04/02/2020 05/02/2020 27655
15187 19/12/2019 UNIDAD DE TRANSPORTE S.A. 8360005043 402617 29/01/2020 04/02/2020 05/02/2020 13713
15250 19/12/2019 COOPERTATIVA ESPECIALIZADA DE TRANSPORTADORES DE SUCRE LIMITADA 8922012353 401612 29/01/2020 04/02/2020 05/02/2020 40674
15270 19/12/2019 ESPECIALIZADA DE TRANSPORTADORS DE SUCRE LIMITADA 8922012353 405351 29/01/2020 04/02/2020 05/02/2020 23034
15277 19/12/2019 COOPERTATIVA ESPECIALIZADA DE TRANSPORTADORES D SUCRE LIMITADA 8922012353 402158 29/01/2020 04/02/2020 05/02/2020 27646
15349 19/12/2019 TRANSPORTES CLIMA COLOMBIA LTDA 8305010209 NA 29/01/2020 04/02/2020 05/02/2020 74948
15359 19/12/2019 SERCOP LTDA 8190050147 NA 29/01/2020 04/02/2020 05/02/2020 75032
15471 24/12/2019 SERVICIO DE TRANSPORTE COOPERATIVO LAS FLORES 8020135550 NA 29/01/2020 04/02/2020 05/02/2020 75024
15472 24/12/2019 COMPANIA LOGISTICA DEL NORTE LTDA 8020183771 NA 29/01/2020 04/02/2020 05/02/2020 75030
15484 24/12/2019 LOGISTICA INTEGRAL INTERNACIONAL SAS 9004610921 NA 29/01/2020 04/02/2020 05/02/2020 73953
15485 24/12/2019 TRANSPORTAMOS LOGISTICO SAS 9005841671 NA 29/01/2020 04/02/2020 05/02/2020 28349
15502 24/12/2019 COOPERATIVA DE TRANSPORTADORES DEL NORTE LIMITADA 8040110985 NA 29/01/2020 04/02/2020 05/02/2020 75035
15504 24/12/2019 TRANSPORTAMOS LOGISTICO SAS 9005841671 NA 29/01/2020 04/02/2020 05/02/2020 46593
15505 24/12/2019 TRANSPORTAMOS LOGISTICO SAS 9005841671 NA 29/01/2020 04/02/2020 05/02/2020 28802
15506 24/12/2019 TRANSPORTAMOS LOGISTICO SAS 9005841671 NA 29/01/2020 04/02/2020 05/02/2020 32673
15507 24/12/2019 TRANSPORTES AFILIADOS ROJO GRIS SA 8050310589 NA 29/01/2020 04/02/2020 05/02/2020 75007
15517 24/12/2019 COOPERATIVA DE TRANSPORTES DEL VALLE 805013660 NA 29/01/2020 04/02/2020 05/02/2020 73439
15578 24/12/2019 CAPA OPERADOR PORTUARIO SAS EN LIQUIDACION 9007045441 NA 29/01/2020 04/02/2020 05/02/2020 NA
15582 24/12/2019 X PORTUARIA O.P S.A.S. 9008156270 NA 29/01/2020 04/02/2020 05/02/2020 NA
15951 30/12/2019 COOPERATIVA DE TRANSPORTADORES ESPECIALES Y TURISMO ZIPAQUIRA 8320062643 15338314 29/01/2020 04/02/2020 05/02/2020 30550
15978 30/12/2019 TRANSPORTES Y ENCOMIENDAS DEL ARAUCA LIMITADA 8001600158 NA 29/01/2020 04/02/2020 05/02/2020 74745
15980 30/12/2019 VANGUARDIA TRANSPORTADORA DE CARGA SA 8001628872 NA 29/01/2020 04/02/2020 05/02/2020 74746
15984 30/12/2019 OPERADOR LOGISTICO DE CARGA DIBLANK LTDA 9001029891 NA 29/01/2020 04/02/2020 05/02/2020 74929
15986 30/12/2019 COOPERATIVA DE TRANPORTADORES DE CARGA 9000884568 NA 29/01/2020 04/02/2020 05/02/2020 74912
15987 30/12/2019 TRANSPORTES DE COLOMBIA SA 900070135 NA 29/01/2020 04/02/2020 05/02/2020 74924
15989 30/12/2019 COOLIBRI LTDA 8300175347 NA 29/01/2020 04/02/2020 05/02/2020 74797
15990 30/12/2019 TRANSPORTES MARIN SAS 900099925 NA 29/01/2020 04/02/2020 05/02/2020 7330
15991 30/12/2019 TRANSPORTES ESPECIALIZADIOS JPV SA 9000924760 NA 29/01/2020 04/02/2020 05/02/2020 74915
15992 30/12/2019 TRANSPORTES OCCIDENTE DE CARGA 8300491968 NA 29/01/2020 04/02/2020 05/02/2020 74760
15996 30/12/2019 TRANSPORTES ESPECIALES COLOMBIANOS Y VIAJES EXPRESOS S.A.S. VIACOLTEX 8300795027 13754981 29/01/2020 04/02/2020 05/02/2020 18497
14511 13/12/2019 COLOMBIANA DE TRANSPORTES DEL CARIBE S.A.S. 9005108030 N/A 29/01/2020 04/0122020 05/02/2020 37966
183 03/01/2020 COOPERATIVA DE TRANSPORTADORES ESPECIALES Y TURISMO ZIPAQUIRA 8320062643 0118538 29/01/2020 04/02/2020 05/02/2020 22976
275 03/01/2020 KAPITAL CARGA S.A.S. 8301472887 204645 29/01/2020 04/02/2020 05/02/2020 8481
434 03/01/2020 TRANSPORTES ESPECIALES COLOMBIANOS Y VIAJES EXPRESOS S.A.S. EN LIQUIDACION 8300795027 13753736 29/01/2020 04/02/2020 05/02/2020 26701
505 03/01/2020 COOPERATIVA INTEGRAL DE SERVICIOS Y TRANSPORTE LTDA 8600762304 15337608 29/01/2020 04/02/2020 05/02/2020 24209
560 03/01/2020 F.M. ASESORIAS ADUANERAS E.U. 8350015875 NA 29/01/2020 04/02/2020 05/02/2020 NA
564 03/01/2020 OPERACIONES LOGISTICAS DEL PACIFICO S.A.S. 9004773512 NA 29/01/2020 04/02/2020 05/02/2020 NA
577 03/01/2020 COMPANIA DE CARGA Y TRANSPORTE LTDA 9000416260 NA 29/01/2020 04/02/2020 05/02/2020 74919
581 03/01/2020 ONE SINGLE FIRM LTDA 8300655001 NA 29/01/2020 04/02/2020 05/02/2020 30698
8293 06/09/2019 INVERSIONES TRANSPORTES DE CHOCHO INSTRACHOCHO LTDA 8230023389 NA 29/01/2020 04/02/2020 05/02/2020 11695
11181 21/10/2019 EXPRESO DEL VIENTO S.A. 9001197843 N/A 29/01/2020 04/02/2020 05/02/2020 13654
13384 03/12/2019 COOPERATIVA MULTIACTIVA DE TRANSPORTADORES FLUVIALES TURISTICO Y TERRESTRE DEL ALTO SINU 8120031158 N/A 29/01/2020 04/02/2020 05/02/2020 NA
13639 03/12/2019 TRANSNUEVO LLORO S.A.S. 9004080545 0 29/01/2020 04/02/2020 05/02/2020 0
13189 06/12/2019 SASO SAS 8605151151 NA 29/01/2020 04/02/2020 05/02/2020 27847
14555 16/12/2019 EXPRESO DEL VIENTO 9001197843 NA 29/01/2020 04/02/2020 05/02/2020 74696
14630 17/12/2019 INTERNACIONAL DE TURISMO S.A. 8000989275 399600 29/01/2020 04/02/2020 05/02/2020 22877
14632 17/12/2019 TRANS ATLANTIS PLATINO S.A.S. 9005045973 1112202 29/01/2020 04/02/2020 05/02/2020 21968
14714 17/12/2019 DESPACHADORA INTERNACIONAL DE COLOMBIA S.A.S. 8600681216 187350 29/01/2020 04/02/2020 05/02/2020 8402
15060 19/12/2019 INTERNACIONAL DE TURISMO S.A. 8000989275 0024680 29/01/2020 04/02/2020 05/02/2020 49275
15294 19/12/2019 DESPACHADORA INTERNACIONAL DE COLOMBIA S.A.S. 8600681216 202184 29/01/2020 04/02/2020 05/02/2020 36372
15330 19/12/2019 TRANSPORTE RENO LTDA 8305116271 NA 29/01/2020 04/02/2020 05/02/2020 73891
15340 19/12/2019 SOCIEDAD TRANSPORTADORA ELITE SAS 9004385884 NA 29/01/2020 04/02/2020 05/02/2020 75067
15474 24/12/2019 COTRASERCA LTDA 8002138113 NA 29/01/2020 04/02/2020 05/02/2020 74755
15508 24/12/2019 SERVIEXPRESS LTDA 821003238 NA 29/01/2020 04/02/2020 05/02/2020 75033
15510 24/12/2019 COOPERATIVA DE TRABAJO ASOCIADO COINTRAN 8060152679 NA 29/01/2020 04/02/2020 05/02/2020 74780
15570 24/12/2019 TRANSPORTES DAYPER SAS 9004403196 N/A 29/01/2020 04/02/2020 05/02/2020 41322
15583 24/12/2019 TRANSPORTADORA COMERCIAL LTDA EN LIQUIDACION 8904039866 NA 29/01/2020 04/02/2020 05/02/2020 NA
15652 30/12/2019 COMPANAA INTEGRAL DE TRANSPORTES ESPECIALES S.A.S 9004632008 15338005 29/01/2020 04/02/2020 05/02/2020 28500
15867 30/12/2019 INTERNACIONAL DE TURISMO S.A. 8000989275 0023207 29/01/2020 04/02/2020 05/02/2020 27734
15994 30/12/2019 TRANSPORTE CAR-GAR SAS 900098997 NA 29/01/2020 04/02/2020 05/02/2020 74924
16071 31/12/2019 TRANSPORTES CARGA EXPRESS S.A.S 8000373092 NA 29/01/2020 04/02/2020 05/02/2020 NA
16076 31/12/2019 MOVILIZACIONES ESPECIALES PETROLERAS S.A.S 9006590606 NA 29/01/2020 04/02/2020 05/02/2020 NA
12 03/01/2020 TURISMO Y EXPRESOS S.A.S 8300800408 15336021 06/02/2020 12/02/2020 13/02/2020 30316
18 03/01/2020 EMPRESA DE TRANSPORTE BUENA VISTA S.A.S. 9004767741 15330440 06/02/2020 12/02/2020 13/02/2020 25260
31 03/01/2020 EMPRESA DE TRANSPORTE BUENA VISTA S.A.S. 9004767741 15330213 06/02/2020 12/02/2020 13/02/2020 24231
76 03/01/2020 EMPRESA DE TRANSPORTE BUENA VISTA S.A.S. 9004767741 15334732 06/02/2020 12/02/2020 13/02/2020 24381
88 03/01/2020 EMPRESA DE TRANSPORTE BUENA VISTA S.A.S. 9004767741 15337227 06/02/2020 12/02/2020 13/02/2020 24237
138 03/01/2020 SATI S.A.S. 8002106826 13751916 06/02/2020 12/02/2020 13/02/2020 31463
139 03/01/2020 SATI S.A.S. 8002106826 15338021 06/02/2020 12/02/2020 13/02/2020 31504
185 03/01/2020 EMPRESA DE TRANSPORTE BUENA VISTA S.A.S. 9004767741 15340551 06/02/2020 12/02/2020 13/02/2020 35524
216 03/01/2020 UNIDAD DE TRANSPORTE S.A. 8360005043 202185 06/02/2020 12/02/2020 13/02/2020 8417
220 03/01/2020 SERVICIOS SUMINISTROS Y TRANSPORTE LTDA 8000457139 15334380 06/02/2020 12/02/2020 13/02/2020 30817
222 03/01/2020 EMPRESA DE TRANSPORTE BUENA VISTA S.A.S. 9004767741 256672 06/02/2020 12/02/2020 13/02/2020 44965
250 03/01/2020 EMPRESA DE TRANSPORTE BUENA VISTA S.A.S. 9004767741 15338121 06/02/2020 12/02/2020 13/02/2020 30378
310 03/01/2020 TAXIS DEL SUR S.A 8902117682 004861 06/02/2020 12/02/2020 13/02/2020 55329
341 03/01/2020 TURISMO Y EXPRESOS S.A.S 8300800408 15337595 06/02/2020 12/02/2020 13/02/2020 29500
346 03/01/2020 EMPRESA DE TRANSPORTE BUENA VISTA S.A.S. 9004767741 15337907 06/02/2020 12/02/2020 13/02/2020 26917
351 03/01/2020 EMPRESA DE TRANSPORTE BUENA VISTA S.A.S. 9004767741 15337163 06/02/2020 12/02/2020 13/02/2020 24333
363 03/01/2020 EMPRESA DE TRANSPORTE BUENA VISTA S.A.S. 9004767741 15326948 06/02/2020 12/02/2020 13/02/2020 34885
406 03/01/2020 EMPRESA DE TRANSPORTE BUENA VISTA S.A.S. 9004767741 15334388 06/02/2020 12/02/2020 13/02/2020 30341
417 03/01/2020 EMPRESA DE TRANSPORTE BUENA VISTA S.A.S. 9004767741 15326944 06/02/2020 12/02/2020 13/02/2020 30311
427 03/01/2020 EMPRESA DE TRANSPORTE BUENA VISTA S.A.S. 9004767741 15334225 06/02/2020 12/02/2020 13/02/2020 35538
436 03/01/2020 EMPRESA DE TRANSPORTE BUENA VISTA S.A.S. 9004767741 13753738 06/02/2020 12/02/2020 13/02/2020 26926
446 03/01/2020 SATI S.A.S. 8002106826 15334746 06/02/2020 12/02/2020 13/02/2020 29557
542 03/01/2020 COMPANIA NAVIERA DEL GUAVIO LIMITADA 8000463581 NA 06/02/2020 12/02/2020 13/02/2020 NA
544 03/01/2020 CASANOVA ESPINOSA KELSI TATIANA 38472619 NA 06/02/2020 12/02/2020 13/02/2020 NA
573 03/01/2020 SICARIBE LTDA 9000937627 NA 06/02/2020 12/02/2020 13/02/2020 74916
579 03/01/2020 TRANSPORTES AIMAR LTDA 9000921806 NA 06/02/2020 12/02/2020 13/02/2020 74914
662 08/01/2020 SOSETRANS LTDA 8300397290 15336673 06/02/2020 12/02/2020 13/02/2020 29654
717 08/01/2020 ASOCIACION PUBLICA DE TRANSPORTE LTDA 8300907035 15335933 06/02/2020 12/02/2020 13/02/2020 27766
806 08/01/2020 SATI S.A.S. 8002106826 15338602 06/02/2020 12/02/2020 13/02/2020 30563
811 08/01/2020 KAPITAL CARGA S.A.S. 8301472887 372392 06/02/2020 12/02/2020 13/02/2020 35168
828 08/01/2020 COMERCIALIZADORA E IMPORTADORA COLOMBIANAN S.A.S. 9004286145 13751917 06/02/2020 12/02/2020 13/02/2020 31502
955 08/01/2020 SATI S.A.S. 8002106826 15338405 06/02/2020 12/02/2020 13/02/2020 30795
1044 14/01/2020 COOPERATIVA DE TRANSPORTADORES SOL NACIENTE 9000685410 NA 06/02/2020 12/02/2020 13/02/2020 74923
1042 14/01/2020 C.L.A TRANSPORTES LTDA 9001624303 NA 06/02/2020 12/02/2020 13/02/2020 73301
13639 03/12/2019 BRAVO DE MEJIA MARIANA 29358836 0 06/02/2020 12/02/2020 13/02/2020 0
14755 17/12/2019 SERVITURES DE LA SABANA S.A.S 8320072237 15336973 06/02/2020 12/02/2020 13/02/2020 29570
14937 19/12/2019 TRANSPORTES ESPECIALES 1CAR S.A.S. 9008877815 15335579 06/02/2020 12/02/2020 13/02/2020 30669
14958 19/12/2019 TRANSPORTES ALIANZA S.A. 8600061876 402645 06/02/2020 12/02/2020 13/02/2020 33845
15079 19/12/2019 TRANSPORTES ESMERALDA S.A.S 8600354795 13752387 06/02/2020 12/02/2020 13/02/2020 25303
15125 19/12/2019 SERVITURES DE LA SABANA S.A.S. 8320072236 336238 06/02/2020 12/02/2020 13/02/2020 21893
15158 19/12/2019 TRANSPORTES HUMADEA S.A 8300963767 202171 06/02/2020 12/02/2020 13/02/2020 6980
15226 19/12/2019 EXPRESOS Y SERVIVIOS S.A.S. 8002140373 15338308 06/02/2020 12/02/2020 13/02/2020 30571
15303 19/12/2019 COOPERATIVA MULTIACTIVA DE TRANSPORTADORES INDEPENDIENTES LTDA 8320019039 NA 06/02/2020 12/02/2020 13/02/2020 73782
15360 19/12/2019 TRANSPORTADORA GENERADORA DE CARGA SA 8320099311 NA 06/02/2020 12/02/2020 13/02/2020 73824
15366 19/12/2019 ARA LOGISTICA SAS 9002563410 NA 06/02/2020 12/02/2020 13/02/2020 75010
15437 19/12/2019 CURI ROMERO CESAR AUGUSTO 9312360 NA 06/02/2020 12/02/2020 13/02/2020 NA
15493 24/12/2019 TESA INGENIERIA SAS 9004425145 NA 06/02/2020 12/02/2020 13/02/2020 74895
15655 30/12/2019 EMPRESA DE TRANSPORTE BUENA VISTA S.A.S. 9004767741 15336374 06/02/2020 12/02/2020 13/02/2020 28491
15661 30/12/2019 EMPRESA DE TRANSPORTE BUENA VISTA S.A.S. 9004767741 404865 06/02/2020 12/02/2020 13/02/2020 13747
15662 30/12/2019 EMPRESA DE TRANSPORTE BUENA VISTA S.A.S. 9004767741 13752688 06/02/2020 12/02/2020 13/02/2020 24339
15664 30/12/2019 TRANSPORTE LOGISTICO SERVIMOS S.A.S 9008584738 15335649 06/02/2020 12/02/2020 13/02/2020 24353
15668 30/12/2019 EMPRESA DE TRANSPORTE BUENA VISTA S.A.S. 9004767741 15328852 06/02/2020 12/02/2020 13/02/2020 24400
15679 30/12/2019 EMPRESA DE TRANSPORTE BUENA VISTA S.A.S. 9004767741 13753482 06/02/2020 12/02/2020 13/02/2020 29598
15736 30/12/2019 EMPRESA DE TRANSPORTE BUENA VISTA S.A.S. 9004767741 15337869 06/02/2020 12/02/2020 13/02/2020 24452
15743 30/12/2019 EMPRESA DE TRANSPORTE BUENA VISTA S.A.S. 9004767741 15339105 06/02/2020 12/02/2020 13/02/2020 35136
15796 30/12/2019 EMPRESA DE TRANSPORTE BUENA VISTA S.A.S. 9004767741 15336376 06/02/2020 12/02/2020 13/02/2020 25301
15846 30/12/2019 EMPRESA DE TRANSPORTE BUENA VISTA S.A.S. 9004767741 0170316 06/02/2020 12/02/2020 13/02/2020 31541
15972 30/12/2019 TRANSPORTES DUARTE 8600247452 NA 06/02/2020 12/02/2020 13/02/2020 4169
15983 30/12/2019 MOVILIZACIONES PETROLERAS SAS 9004160618 NA 06/02/2020 12/02/2020 13/02/2020 74765
13637 03/12/2019 JIMENEZ BENAVIDES JORGE ELIECER 8049356 N/A 06/02/2020 12/02/2020 13/02/2020 43126
15566 24/12/2019 COOPERATIVA MULTIACTIVA DE TRANSPORTE TERRESTRE AUTOMOTOR DE CARGA EL CARDENAL GUAJIRO 8390008482 N/A 06/02/2020 12/02/2020 13/02/2020 28280
20205320019252 09/01/2020 LUIS FELIPE PEDRAZA CRUZ N/A N/A 06/02/2020 12/02/2020 13/02/2020 N/A